Time;durP1;ratioP1;P1;durP2;ratioP2;P2;SDS_P1;SDS_P2;PMS_P1;PMS_P2;Temp;Humidity;BMP_temperature;BMP_pressure;BME280_temperature;BME280_humidity;BME280_pressure;Samples;Min_cycle;Max_cycle;Signal;HPM_P1;HPM_P2
2021/07/30 00:00:20;;;;;;;28.50;10.60;;;;;;;;;;4987865;28;20458;-92
2021/07/30 00:02:46;;;;;;;30.60;11.43;;;;;;;;;;5017700;28;20502;-91
2021/07/30 00:05:13;;;;;;;15.57;7.60;;;;;;;;;;4998492;28;20457;-91
2021/07/30 00:07:39;;;;;;;22.20;9.77;;;;;;;;;;5022869;28;20448;-91
2021/07/30 00:10:07;;;;;;;20.70;9.93;;;;;;;;;;5022776;28;20491;-92
2021/07/30 00:12:34;;;;;;;17.87;9.67;;;;;;;;;;5023823;28;20452;-91
2021/07/30 00:15:00;;;;;;;23.10;8.70;;;;;;;;;;5023205;28;20452;-91
2021/07/30 00:17:27;;;;;;;16.30;11.40;;;;;;;;;;5017731;28;20442;-91
2021/07/30 00:19:53;;;;;;;22.30;10.50;;;;;;;;;;4985453;28;20454;-93
2021/07/30 00:22:20;;;;;;;22.03;10.20;;;;;;;;;;4986053;28;20454;-91
2021/07/30 00:24:46;;;;;;;16.43;9.60;;;;;;;;;;5017343;28;21048;-90
2021/07/30 00:27:14;;;;;;;24.87;10.87;;;;;;;;;;4984307;28;20865;-93
2021/07/30 00:29:40;;;;;;;19.90;9.53;;;;;;;;;;4994948;28;20547;-90
2021/07/30 00:32:07;;;;;;;19.33;9.70;;;;;;;;;;5006662;28;20452;-92
2021/07/30 00:34:34;;;;;;;24.90;10.27;;;;;;;;;;5017396;28;20465;-91
2021/07/30 00:37:00;;;;;;;21.83;9.20;;;;;;;;;;5004533;28;20469;-91
2021/07/30 00:39:27;;;;;;;17.73;10.20;;;;;;;;;;5004458;28;20496;-91
2021/07/30 00:41:53;;;;;;;17.00;8.43;;;;;;;;;;5004980;28;20448;-91
2021/07/30 00:44:21;;;;;;;18.80;9.57;;;;;;;;;;5004506;28;20453;-91
2021/07/30 00:46:47;;;;;;;18.53;9.57;;;;;;;;;;4995880;28;20500;-91
2021/07/30 00:49:14;;;;;;;21.67;11.13;;;;;;;;;;5004219;28;20516;-92
2021/07/30 00:51:41;;;;;;;19.53;10.57;;;;;;;;;;5004307;28;20465;-90
2021/07/30 00:54:08;;;;;;;21.47;10.67;;;;;;;;;;4995848;28;20483;-92
2021/07/30 00:56:34;;;;;;;17.70;9.83;;;;;;;;;;5003556;28;20448;-91
2021/07/30 00:59:01;;;;;;;23.37;10.80;;;;;;;;;;5003961;28;20466;-91
2021/07/30 01:01:29;;;;;;;19.00;9.77;;;;;;;;;;5022485;28;20448;-90
2021/07/30 01:03:55;;;;;;;25.87;10.23;;;;;;;;;;5021923;28;20483;-91
2021/07/30 01:06:22;;;;;;;19.40;9.47;;;;;;;;;;5022046;28;20455;-91
2021/07/30 01:08:48;;;;;;;18.90;10.10;;;;;;;;;;5021600;28;20491;-91
2021/07/30 01:11:15;;;;;;;24.83;10.70;;;;;;;;;;5017241;28;21140;-91
2021/07/30 01:13:41;;;;;;;24.93;10.40;;;;;;;;;;5003009;28;20449;-90
2021/07/30 01:16:08;;;;;;;17.80;9.80;;;;;;;;;;5002801;28;20456;-91
2021/07/30 01:18:36;;;;;;;22.40;10.50;;;;;;;;;;5003822;28;20449;-92
2021/07/30 01:21:07;;;;;;;17.90;9.13;;;;;;;;;;5003813;28;20453;-91
2021/07/30 01:23:35;;;;;;;24.60;10.20;;;;;;;;;;5003617;28;20467;-91
2021/07/30 01:26:02;;;;;;;18.63;9.43;;;;;;;;;;5009189;28;20506;-92
2021/07/30 01:28:29;;;;;;;19.10;10.20;;;;;;;;;;5013935;28;20457;-91
2021/07/30 01:30:56;;;;;;;17.13;10.03;;;;;;;;;;4995451;28;20461;-92
2021/07/30 01:33:22;;;;;;;20.87;10.00;;;;;;;;;;5001769;28;20445;-92
2021/07/30 01:35:49;;;;;;;18.80;9.50;;;;;;;;;;5001448;28;21043;-92
2021/07/30 01:38:16;;;;;;;26.10;10.90;;;;;;;;;;4995645;28;20519;-91
2021/07/30 01:40:44;;;;;;;18.07;9.43;;;;;;;;;;5009443;28;20468;-92
2021/07/30 01:43:10;;;;;;;18.60;10.20;;;;;;;;;;5011250;28;20552;-92
2021/07/30 01:45:37;;;;;;;18.10;9.43;;;;;;;;;;4993622;28;20447;-91
2021/07/30 01:48:03;;;;;;;21.50;9.27;;;;;;;;;;5009229;28;20503;-92
2021/07/30 01:50:30;;;;;;;28.43;10.30;;;;;;;;;;5022646;28;20495;-92
2021/07/30 01:52:56;;;;;;;17.00;10.53;;;;;;;;;;5022653;28;20463;-92
2021/07/30 01:55:24;;;;;;;14.80;8.90;;;;;;;;;;5022836;28;20460;-91
2021/07/30 01:57:51;;;;;;;24.83;9.80;;;;;;;;;;5015434;28;20528;-91
2021/07/30 02:00:18;;;;;;;18.17;9.83;;;;;;;;;;5005989;28;20457;-91
2021/07/30 02:02:44;;;;;;;22.93;10.20;;;;;;;;;;5005963;28;20967;-91
2021/07/30 02:05:11;;;;;;;24.00;9.93;;;;;;;;;;5005125;28;21012;-92
2021/07/30 02:07:37;;;;;;;17.70;9.03;;;;;;;;;;5006787;28;20701;-92
2021/07/30 02:10:04;;;;;;;12.17;8.63;;;;;;;;;;5007643;28;20495;-92
2021/07/30 02:12:31;;;;;;;26.30;9.80;;;;;;;;;;5006412;28;20484;-91
2021/07/30 02:14:58;;;;;;;16.20;9.80;;;;;;;;;;5013908;28;20447;-91
2021/07/30 02:17:24;;;;;;;17.47;9.63;;;;;;;;;;5011244;28;20456;-92
2021/07/30 02:19:50;;;;;;;26.07;10.33;;;;;;;;;;5025783;28;20491;-91
2021/07/30 02:22:17;;;;;;;18.80;10.00;;;;;;;;;;5024470;28;20483;-92
2021/07/30 02:24:43;;;;;;;18.93;10.20;;;;;;;;;;5006549;28;20445;-90
2021/07/30 02:27:10;;;;;;;22.00;9.73;;;;;;;;;;5007073;28;20448;-91
2021/07/30 02:29:36;;;;;;;24.27;10.33;;;;;;;;;;5006673;28;20508;-90
2021/07/30 02:32:05;;;;;;;25.07;10.97;;;;;;;;;;5006476;28;20473;-91
2021/07/30 02:34:31;;;;;;;29.00;10.13;;;;;;;;;;5006889;28;20487;-91
2021/07/30 02:36:57;;;;;;;17.90;9.17;;;;;;;;;;5008740;28;20480;-91
2021/07/30 02:39:24;;;;;;;18.03;9.70;;;;;;;;;;5005791;28;21048;-91
2021/07/30 02:41:50;;;;;;;20.57;10.20;;;;;;;;;;5013199;28;21046;-91
2021/07/30 02:44:17;;;;;;;22.30;10.37;;;;;;;;;;5025734;28;20860;-91
2021/07/30 02:46:43;;;;;;;16.90;10.40;;;;;;;;;;5026217;28;20477;-91
2021/07/30 02:49:11;;;;;;;18.03;9.50;;;;;;;;;;5018891;28;21027;-91
2021/07/30 02:51:38;;;;;;;29.60;10.80;;;;;;;;;;5006439;28;20488;-91
2021/07/30 02:54:04;;;;;;;23.93;11.50;;;;;;;;;;5009724;28;20455;-91
2021/07/30 02:56:31;;;;;;;21.53;10.47;;;;;;;;;;5018496;28;20456;-92
2021/07/30 02:58:57;;;;;;;17.03;9.67;;;;;;;;;;5007286;28;20507;-92
2021/07/30 03:01:23;;;;;;;19.20;9.30;;;;;;;;;;5018867;28;20444;-92
2021/07/30 03:03:50;;;;;;;24.20;10.07;;;;;;;;;;5024680;28;20513;-91
2021/07/30 03:06:18;;;;;;;17.70;10.33;;;;;;;;;;5014853;28;20491;-91
2021/07/30 03:08:44;;;;;;;18.80;8.83;;;;;;;;;;5003905;28;21005;-92
2021/07/30 03:11:11;;;;;;;16.73;9.53;;;;;;;;;;5004538;28;20499;-90
2021/07/30 03:13:37;;;;;;;22.90;10.03;;;;;;;;;;5006111;28;20452;-91
2021/07/30 03:16:04;;;;;;;23.43;11.63;;;;;;;;;;5006315;28;20535;-91
2021/07/30 03:18:32;;;;;;;29.67;14.00;;;;;;;;;;5006313;28;20540;-91
2021/07/30 03:20:59;;;;;;;23.50;10.90;;;;;;;;;;5005762;28;21020;-91
2021/07/30 03:23:26;;;;;;;22.33;10.50;;;;;;;;;;5006195;28;20789;-91
2021/07/30 03:25:54;;;;;;;16.67;10.87;;;;;;;;;;5005668;28;20461;-91
2021/07/30 03:28:21;;;;;;;27.83;11.23;;;;;;;;;;5004964;28;20983;-92
2021/07/30 03:30:47;;;;;;;24.40;11.90;;;;;;;;;;5005031;28;20562;-92
2021/07/30 03:33:14;;;;;;;18.93;10.77;;;;;;;;;;5005946;28;20456;-92
2021/07/30 03:35:40;;;;;;;22.67;11.87;;;;;;;;;;5014554;28;20446;-91
2021/07/30 03:38:07;;;;;;;21.73;12.63;;;;;;;;;;5023992;28;20533;-92
2021/07/30 03:40:35;;;;;;;20.90;11.10;;;;;;;;;;5023986;28;20447;-91
2021/07/30 03:43:01;;;;;;;20.03;10.90;;;;;;;;;;5023226;28;21216;-92
2021/07/30 03:45:28;;;;;;;16.03;10.07;;;;;;;;;;5023011;28;20898;-91
2021/07/30 03:47:54;;;;;;;22.67;10.93;;;;;;;;;;5024540;28;20863;-92
2021/07/30 03:50:21;;;;;;;20.70;10.97;;;;;;;;;;5015411;28;20542;-91
2021/07/30 03:52:47;;;;;;;20.07;11.17;;;;;;;;;;5015490;28;20458;-91
2021/07/30 03:55:13;;;;;;;26.57;11.67;;;;;;;;;;5016093;28;20464;-92
2021/07/30 03:57:41;;;;;;;16.63;10.30;;;;;;;;;;5012906;28;20497;-90
2021/07/30 04:00:08;;;;;;;23.67;10.83;;;;;;;;;;5024381;28;20447;-90
2021/07/30 04:02:35;;;;;;;26.43;11.90;;;;;;;;;;5024702;28;20458;-91
2021/07/30 04:05:01;;;;;;;17.57;10.20;;;;;;;;;;5023866;28;20450;-90
2021/07/30 04:07:28;;;;;;;25.47;11.77;;;;;;;;;;5022924;28;20518;-91
2021/07/30 04:09:54;;;;;;;29.57;12.07;;;;;;;;;;5021689;28;20546;-91
2021/07/30 04:12:21;;;;;;;22.63;11.57;;;;;;;;;;5023915;28;20447;-91
2021/07/30 04:14:49;;;;;;;29.80;12.47;;;;;;;;;;4996954;28;21353;-91
2021/07/30 04:17:15;;;;;;;31.60;12.50;;;;;;;;;;5005017;28;20444;-92
2021/07/30 04:19:44;;;;;;;25.43;11.50;;;;;;;;;;5004932;28;20464;-90
2021/07/30 04:22:11;;;;;;;33.77;11.17;;;;;;;;;;4995907;28;20519;-92
2021/07/30 04:24:39;;;;;;;21.73;11.67;;;;;;;;;;5004299;28;21040;-91
2021/07/30 04:27:06;;;;;;;26.27;12.87;;;;;;;;;;5011481;28;20487;-91
2021/07/30 04:29:37;;;;;;;27.43;11.10;;;;;;;;;;5021184;28;20474;-92
2021/07/30 04:32:05;;;;;;;24.90;10.73;;;;;;;;;;5022470;28;20526;-91
2021/07/30 04:34:31;;;;;;;26.33;11.77;;;;;;;;;;5021170;28;20452;-92
2021/07/30 04:36:58;;;;;;;29.40;12.20;;;;;;;;;;5009059;28;20971;-92
2021/07/30 04:39:24;;;;;;;26.67;11.13;;;;;;;;;;5023645;28;20526;-92
2021/07/30 04:41:51;;;;;;;28.37;11.80;;;;;;;;;;5023271;28;20507;-91
2021/07/30 04:44:18;;;;;;;26.13;12.60;;;;;;;;;;5023703;28;20456;-92
2021/07/30 04:46:44;;;;;;;30.10;12.97;;;;;;;;;;5022823;28;20451;-91
2021/07/30 04:49:12;;;;;;;27.40;11.03;;;;;;;;;;5004529;28;20454;-91
2021/07/30 04:51:38;;;;;;;35.70;11.97;;;;;;;;;;5006669;28;21066;-91
2021/07/30 04:54:05;;;;;;;24.97;11.93;;;;;;;;;;4994384;28;20453;-91
2021/07/30 04:56:31;;;;;;;31.60;12.10;;;;;;;;;;4984934;28;20442;-91
2021/07/30 04:58:58;;;;;;;33.87;13.20;;;;;;;;;;4985408;28;20453;-92
2021/07/30 05:01:25;;;;;;;27.40;13.10;;;;;;;;;;4985582;28;20858;-91
2021/07/30 05:03:51;;;;;;;32.20;12.53;;;;;;;;;;4985172;28;20477;-91
2021/07/30 05:06:21;;;;;;;24.10;13.27;;;;;;;;;;4984829;28;20469;-91
2021/07/30 05:08:48;;;;;;;23.20;11.90;;;;;;;;;;4995751;28;20483;-95
2021/07/30 05:11:14;;;;;;;25.13;12.07;;;;;;;;;;5004741;28;20516;-94
2021/07/30 05:13:42;;;;;;;21.90;10.97;;;;;;;;;;4990443;28;20475;-96
2021/07/30 05:16:09;;;;;;;30.30;11.07;;;;;;;;;;5022859;28;20476;-94
2021/07/30 05:18:35;;;;;;;28.10;11.43;;;;;;;;;;5006798;28;20452;-93
2021/07/30 05:21:08;;;;;;;32.00;12.10;;;;;;;;;;4996287;28;20479;-96
